sensor_id;sensor_type;location;lat;lon;timestamp;pressure;altitude;pressure_sealevel;temperature;humidity
14343;BME280;7255;53.596;9.960;2023-07-30T00:01:21;100517.44;;;17.56;nan
14343;BME280;7255;53.596;9.960;2023-07-30T00:03:55;100520.94;;;17.61;nan
14343;BME280;7255;53.596;9.960;2023-07-30T00:06:21;100521.47;;;17.68;nan
14343;BME280;7255;53.596;9.960;2023-07-30T00:08:49;100531.22;;;17.75;nan
14343;BME280;7255;53.596;9.960;2023-07-30T00:11:15;100530.16;;;17.70;nan
14343;BME280;7255;53.596;9.960;2023-07-30T00:13:41;100536.66;;;17.75;nan
14343;BME280;7255;53.596;9.960;2023-07-30T00:16:08;100537.47;;;17.75;nan
14343;BME280;7255;53.596;9.960;2023-07-30T00:18:34;100523.09;;;17.69;nan
14343;BME280;7255;53.596;9.960;2023-07-30T00:21:00;100523.66;;;17.66;nan
14343;BME280;7255;53.596;9.960;2023-07-30T00:23:27;100527.75;;;17.59;nan
14343;BME280;7255;53.596;9.960;2023-07-30T00:25:54;100528.84;;;17.52;nan
14343;BME280;7255;53.596;9.960;2023-07-30T00:28:21;100524.78;;;17.50;nan
14343;BME280;7255;53.596;9.960;2023-07-30T00:30:47;100528.03;;;17.52;nan
14343;BME280;7255;53.596;9.960;2023-07-30T00:33:13;100526.44;;;17.51;nan
14343;BME280;7255;53.596;9.960;2023-07-30T00:35:39;100528.56;;;17.49;nan
14343;BME280;7255;53.596;9.960;2023-07-30T00:38:06;100536.72;;;17.54;nan
14343;BME280;7255;53.596;9.960;2023-07-30T00:40:32;100532.09;;;17.55;nan
14343;BME280;7255;53.596;9.960;2023-07-30T00:42:59;100535.09;;;17.53;nan
14343;BME280;7255;53.596;9.960;2023-07-30T00:45:26;100528.84;;;17.52;nan
14343;BME280;7255;53.596;9.960;2023-07-30T00:47:52;100518.81;;;17.53;nan
14343;BME280;7255;53.596;9.960;2023-07-30T00:50:19;100510.16;;;17.41;nan
14343;BME280;7255;53.596;9.960;2023-07-30T00:52:45;100503.88;;;17.45;nan
14343;BME280;7255;53.596;9.960;2023-07-30T00:55:12;100500.34;;;17.45;nan
14343;BME280;7255;53.596;9.960;2023-07-30T00:57:39;100501.16;;;17.45;nan
14343;BME280;7255;53.596;9.960;2023-07-30T01:00:08;100508.22;;;17.46;nan
14343;BME280;7255;53.596;9.960;2023-07-30T01:02:35;100500.34;;;17.45;nan
14343;BME280;7255;53.596;9.960;2023-07-30T01:05:02;100497.63;;;17.50;nan
14343;BME280;7255;53.596;9.960;2023-07-30T01:07:28;100501.69;;;17.52;nan
14343;BME280;7255;53.596;9.960;2023-07-30T01:09:55;100508.22;;;17.46;nan
14343;BME280;7255;53.596;9.960;2023-07-30T01:12:22;100506.31;;;17.52;nan
14343;BME280;7255;53.596;9.960;2023-07-30T01:14:49;100521.28;;;17.44;nan
14343;BME280;7255;53.596;9.960;2023-07-30T01:17:18;100515.03;;;17.44;nan
14343;BME280;7255;53.596;9.960;2023-07-30T01:19:44;100511.78;;;17.31;nan
14343;BME280;7255;53.596;9.960;2023-07-30T01:22:12;100515.91;;;17.24;nan
14343;BME280;7255;53.596;9.960;2023-07-30T01:24:38;100518.87;;;17.22;nan
14343;BME280;7255;53.596;9.960;2023-07-30T01:27:06;100535.97;;;17.23;nan
14343;BME280;7255;53.596;9.960;2023-07-30T01:29:38;100526.47;;;17.10;nan
14343;BME280;7255;53.596;9.960;2023-07-30T01:32:07;100528.13;;;17.01;nan
14343;BME280;7255;53.596;9.960;2023-07-30T01:34:35;100528.13;;;16.90;nan
14343;BME280;7255;53.596;9.960;2023-07-30T01:37:03;100519.16;;;16.85;nan
14343;BME280;7255;53.596;9.960;2023-07-30T01:39:33;100522.69;;;16.80;nan
14343;BME280;7255;53.596;9.960;2023-07-30T01:42:00;100525.37;;;16.75;nan
14343;BME280;7255;53.596;9.960;2023-07-30T01:44:26;100532.44;;;16.76;nan
14343;BME280;7255;53.596;9.960;2023-07-30T01:46:52;100517.50;;;16.73;nan
14343;BME280;7255;53.596;9.960;2023-07-30T01:49:19;100522.41;;;16.77;nan
14343;BME280;7255;53.596;9.960;2023-07-30T01:51:45;100522.41;;;16.77;nan
14343;BME280;7255;53.596;9.960;2023-07-30T01:54:12;100511.00;;;16.69;nan
14343;BME280;7255;53.596;9.960;2023-07-30T01:56:39;100508.56;;;16.68;nan
14343;BME280;7255;53.596;9.960;2023-07-30T01:59:06;100510.72;;;16.66;nan
14343;BME280;7255;53.596;9.960;2023-07-30T02:01:32;100515.34;;;16.60;nan
14343;BME280;7255;53.596;9.960;2023-07-30T02:03:58;100511.25;;;16.63;nan
14343;BME280;7255;53.596;9.960;2023-07-30T02:06:24;100515.59;;;16.59;nan
14343;BME280;7255;53.596;9.960;2023-07-30T02:08:51;100510.44;;;16.62;nan
14343;BME280;7255;53.596;9.960;2023-07-30T02:11:17;100508.56;;;16.68;nan
14343;BME280;7255;53.596;9.960;2023-07-30T02:13:45;100515.06;;;16.62;nan
14343;BME280;7255;53.596;9.960;2023-07-30T02:16:11;100512.63;;;16.60;nan
14343;BME280;7255;53.596;9.960;2023-07-30T02:18:38;100512.34;;;16.57;nan
14343;BME280;7255;53.596;9.960;2023-07-30T02:21:04;100516.69;;;16.52;nan
14343;BME280;7255;53.596;9.960;2023-07-30T02:23:30;100517.75;;;16.46;nan
14343;BME280;7255;53.596;9.960;2023-07-30T02:25:56;100524.28;;;16.50;nan
14343;BME280;7255;53.596;9.960;2023-07-30T02:28:23;100518.31;;;16.43;nan
14343;BME280;7255;53.596;9.960;2023-07-30T02:30:50;100516.09;;;16.35;nan
14343;BME280;7255;53.596;9.960;2023-07-30T02:33:17;100512.84;;;16.33;nan
14343;BME280;7255;53.596;9.960;2023-07-30T02:35:43;100523.69;;;16.33;nan
14343;BME280;7255;53.596;9.960;2023-07-30T02:38:10;100528.31;;;16.32;nan
14343;BME280;7255;53.596;9.960;2023-07-30T02:40:36;100531.81;;;16.28;nan
14343;BME280;7255;53.596;9.960;2023-07-30T02:43:02;100530.72;;;16.24;nan
14343;BME280;7255;53.596;9.960;2023-07-30T02:45:29;100537.22;;;16.17;nan
14343;BME280;7255;53.596;9.960;2023-07-30T02:47:56;100530.16;;;16.16;nan
14343;BME280;7255;53.596;9.960;2023-07-30T02:50:23;100540.19;;;16.16;nan
14343;BME280;7255;53.596;9.960;2023-07-30T02:52:49;100537.19;;;16.07;nan
14343;BME280;7255;53.596;9.960;2023-07-30T02:55:15;100536.38;;;16.17;nan
14343;BME280;7255;53.596;9.960;2023-07-30T02:57:42;100536.66;;;16.10;nan
14343;BME280;7255;53.596;9.960;2023-07-30T03:00:09;100543.13;;;16.04;nan
14343;BME280;7255;53.596;9.960;2023-07-30T03:02:36;100539.34;;;16.05;nan
14343;BME280;7255;53.596;9.960;2023-07-30T03:05:04;100544.53;;;16.12;nan
14343;BME280;7255;53.596;9.960;2023-07-30T03:07:30;100548.31;;;16.11;nan
14343;BME280;7255;53.596;9.960;2023-07-30T03:09:57;100552.91;;;16.10;nan
14343;BME280;7255;53.596;9.960;2023-07-30T03:12:23;100552.63;;;16.07;nan
14343;BME280;7255;53.596;9.960;2023-07-30T03:14:49;100549.37;;;16.05;nan
14343;BME280;7255;53.596;9.960;2023-07-30T03:17:16;100550.19;;;16.05;nan
14343;BME280;7255;53.596;9.960;2023-07-30T03:19:42;100549.37;;;16.05;nan
14343;BME280;7255;53.596;9.960;2023-07-30T03:22:10;100556.13;;;16.02;nan
14343;BME280;7255;53.596;9.960;2023-07-30T03:24:36;100550.69;;;16.02;nan
14343;BME280;7255;53.596;9.960;2023-07-30T03:27:02;100556.69;;;15.99;nan
14343;BME280;7255;53.596;9.960;2023-07-30T03:29:29;100553.38;;;15.97;nan
14343;BME280;7255;53.596;9.960;2023-07-30T03:31:55;100560.97;;;15.95;nan
14343;BME280;7255;53.596;9.960;2023-07-30T03:34:21;100562.31;;;15.92;nan
14343;BME280;7255;53.596;9.960;2023-07-30T03:36:48;100557.72;;;15.93;nan
14343;BME280;7255;53.596;9.960;2023-07-30T03:39:15;100562.63;;;15.96;nan
14343;BME280;7255;53.596;9.960;2023-07-30T03:41:42;100556.09;;;15.92;nan
14343;BME280;7255;53.596;9.960;2023-07-30T03:44:08;100569.09;;;15.90;nan
14343;BME280;7255;53.596;9.960;2023-07-30T03:46:35;100560.97;;;15.95;nan
14343;BME280;7255;53.596;9.960;2023-07-30T03:49:01;100565.81;;;15.88;nan
14343;BME280;7255;53.596;9.960;2023-07-30T03:51:27;100565.00;;;15.87;nan
14343;BME280;7255;53.596;9.960;2023-07-30T03:53:54;100571.78;;;15.85;nan
14343;BME280;7255;53.596;9.960;2023-07-30T03:56:21;100569.63;;;15.87;nan
14343;BME280;7255;53.596;9.960;2023-07-30T03:58:48;100566.66;;;15.88;nan
14343;BME280;7255;53.596;9.960;2023-07-30T04:01:14;100573.69;;;15.89;nan
14343;BME280;7255;53.596;9.960;2023-07-30T04:03:40;100571.81;;;15.95;nan
14343;BME280;7255;53.596;9.960;2023-07-30T04:06:06;100575.91;;;15.97;nan
14343;BME280;7255;53.596;9.960;2023-07-30T04:08:33;100579.69;;;15.96;nan
14343;BME280;7255;53.596;9.960;2023-07-30T04:10:59;100578.88;;;15.96;nan
14343;BME280;7255;53.596;9.960;2023-07-30T04:13:27;100589.19;;;15.99;nan
14343;BME280;7255;53.596;9.960;2023-07-30T04:15:53;100577.22;;;15.95;nan
14343;BME280;7255;53.596;9.960;2023-07-30T04:18:19;100576.72;;;15.98;nan
14343;BME280;7255;53.596;9.960;2023-07-30T04:20:47;100579.16;;;16.00;nan
14343;BME280;7255;53.596;9.960;2023-07-30T04:23:14;100578.91;;;16.01;nan
14343;BME280;7255;53.596;9.960;2023-07-30T04:25:40;100577.81;;;16.02;nan
14343;BME280;7255;53.596;9.960;2023-07-30T04:28:06;100576.75;;;16.08;nan
14343;BME280;7255;53.596;9.960;2023-07-30T04:30:34;100577.03;;;16.12;nan
14343;BME280;7255;53.596;9.960;2023-07-30T04:33:01;100577.34;;;16.15;nan
14343;BME280;7255;53.596;9.960;2023-07-30T04:35:27;100582.75;;;16.15;nan
14343;BME280;7255;53.596;9.960;2023-07-30T04:37:54;100571.06;;;16.15;nan
14343;BME280;7255;53.596;9.960;2023-07-30T04:40:20;100583.00;;;16.19;nan
14343;BME280;7255;53.596;9.960;2023-07-30T04:42:46;100587.62;;;16.19;nan
14343;BME280;7255;53.596;9.960;2023-07-30T04:45:12;100583.84;;;16.20;nan
14343;BME280;7255;53.596;9.960;2023-07-30T04:47:40;100586.59;;;16.25;nan
14343;BME280;7255;53.596;9.960;2023-07-30T04:50:07;100588.72;;;16.23;nan
14343;BME280;7255;53.596;9.960;2023-07-30T04:52:33;100591.44;;;16.28;nan
14343;BME280;7255;53.596;9.960;2023-07-30T04:54:59;100588.75;;;16.33;nan
14343;BME280;7255;53.596;9.960;2023-07-30T04:57:26;100598.00;;;16.42;nan
14343;BME280;7255;53.596;9.960;2023-07-30T04:59:52;100593.16;;;16.49;nan
14343;BME280;7255;53.596;9.960;2023-07-30T05:02:18;100594.78;;;16.50;nan
14343;BME280;7255;53.596;9.960;2023-07-30T05:04:46;100591.25;;;16.55;nan
14343;BME280;7255;53.596;9.960;2023-07-30T05:07:13;100587.19;;;16.63;nan
14343;BME280;7255;53.596;9.960;2023-07-30T05:09:39;100583.94;;;16.50;nan
14343;BME280;7255;53.596;9.960;2023-07-30T05:12:06;100590.41;;;16.44;nan
14343;BME280;7255;53.596;9.960;2023-07-30T05:14:32;100585.84;;;16.55;nan
14343;BME280;7255;53.596;9.960;2023-07-30T05:16:58;100579.87;;;16.58;nan
14343;BME280;7255;53.596;9.960;2023-07-30T05:19:25;100587.75;;;16.60;nan
14343;BME280;7255;53.596;9.960;2023-07-30T05:21:52;100576.06;;;16.59;nan
14343;BME280;7255;53.596;9.960;2023-07-30T05:24:18;100580.97;;;16.62;nan
14343;BME280;7255;53.596;9.960;2023-07-30T05:26:45;100578.53;;;16.61;nan
14343;BME280;7255;53.596;9.960;2023-07-30T05:29:11;100588.31;;;16.67;nan
14343;BME280;7255;53.596;9.960;2023-07-30T05:31:38;100591.53;;;16.59;nan
14343;BME280;7255;53.596;9.960;2023-07-30T05:34:04;100588.56;;;16.60;nan
14343;BME280;7255;53.596;9.960;2023-07-30T05:36:30;100582.34;;;16.60;nan
14343;BME280;7255;53.596;9.960;2023-07-30T05:38:58;100596.16;;;16.68;nan
14343;BME280;7255;53.596;9.960;2023-07-30T05:41:24;100585.87;;;16.75;nan
14343;BME280;7255;53.596;9.960;2023-07-30T05:43:50;100582.34;;;16.80;nan
14343;BME280;7255;53.596;9.960;2023-07-30T05:46:17;100572.63;;;16.95;nan
14343;BME280;7255;53.596;9.960;2023-07-30T05:48:43;100575.34;;;16.89;nan
14343;BME280;7255;53.596;9.960;2023-07-30T05:51:09;100580.22;;;17.03;nan
14343;BME280;7255;53.596;9.960;2023-07-30T05:53:36;100569.37;;;17.03;nan
14343;BME280;7255;53.596;9.960;2023-07-30T05:56:04;100577.25;;;17.15;nan
14343;BME280;7255;53.596;9.960;2023-07-30T05:58:30;100579.41;;;17.12;nan
14343;BME280;7255;53.596;9.960;2023-07-30T06:00:56;100587.81;;;17.21;nan
14343;BME280;7255;53.596;9.960;2023-07-30T06:03:23;100576.41;;;17.24;nan
14343;BME280;7255;53.596;9.960;2023-07-30T06:05:49;100584.56;;;17.19;nan
14343;BME280;7255;53.596;9.960;2023-07-30T06:08:16;100589.19;;;17.24;nan
14343;BME280;7255;53.596;9.960;2023-07-30T06:10:42;100582.38;;;17.31;nan
14343;BME280;7255;53.596;9.960;2023-07-30T06:13:10;100591.06;;;17.34;nan
14343;BME280;7255;53.596;9.960;2023-07-30T06:15:36;100590.50;;;17.47;nan
14343;BME280;7255;53.596;9.960;2023-07-30T06:18:02;100598.12;;;17.45;nan
14343;BME280;7255;53.596;9.960;2023-07-30T06:20:29;100595.41;;;17.19;nan
14343;BME280;7255;53.596;9.960;2023-07-30T06:22:55;100594.59;;;17.39;nan
14343;BME280;7255;53.596;9.960;2023-07-30T06:25:21;100598.38;;;17.54;nan
14343;BME280;7255;53.596;9.960;2023-07-30T06:27:48;100605.72;;;17.53;nan
14343;BME280;7255;53.596;9.960;2023-07-30T06:30:15;100600.25;;;17.74;nan
14343;BME280;7255;53.596;9.960;2023-07-30T06:32:42;100596.09;;;18.02;nan
14343;BME280;7255;53.596;9.960;2023-07-30T06:35:08;100605.53;;;18.25;nan
14343;BME280;7255;53.596;9.960;2023-07-30T06:37:34;100599.22;;;18.35;nan
14343;BME280;7255;53.596;9.960;2023-07-30T06:40:01;100601.75;;;18.71;nan
14343;BME280;7255;53.596;9.960;2023-07-30T06:42:29;100592.72;;;18.75;nan
14343;BME280;7255;53.596;9.960;2023-07-30T06:44:55;100595.56;;;18.60;nan
14343;BME280;7255;53.596;9.960;2023-07-30T06:47:23;100596.69;;;18.54;nan
14343;BME280;7255;53.596;9.960;2023-07-30T06:49:49;100601.16;;;18.29;nan
14343;BME280;7255;53.596;9.960;2023-07-30T06:52:15;100597.41;;;18.20;nan
14343;BME280;7255;53.596;9.960;2023-07-30T06:54:42;100601.44;;;18.22;nan
14343;BME280;7255;53.596;9.960;2023-07-30T06:57:08;100597.25;;;18.51;nan
14343;BME280;7255;53.596;9.960;2023-07-30T06:59:34;100605.94;;;18.53;nan
14343;BME280;7255;53.596;9.960;2023-07-30T07:02:01;100604.88;;;18.49;nan
14343;BME280;7255;53.596;9.960;2023-07-30T07:04:28;100606.47;;;18.50;nan
14343;BME280;7255;53.596;9.960;2023-07-30T07:06:55;100597.66;;;18.68;nan
14343;BME280;7255;53.596;9.960;2023-07-30T07:09:21;100611.75;;;18.80;nan
14343;BME280;7255;53.596;9.960;2023-07-30T07:11:48;100605.88;;;18.63;nan
14343;BME280;7255;53.596;9.960;2023-07-30T07:14:14;100609.56;;;18.82;nan
14343;BME280;7255;53.596;9.960;2023-07-30T07:16:40;100607.25;;;19.05;nan
14343;BME280;7255;53.596;9.960;2023-07-30T07:19:06;100614.13;;;19.27;nan
14343;BME280;7255;53.596;9.960;2023-07-30T07:21:34;100612.09;;;19.42;nan
14343;BME280;7255;53.596;9.960;2023-07-30T07:24:00;100607.22;;;19.39;nan
14343;BME280;7255;53.596;9.960;2023-07-30T07:26:27;100617.00;;;19.70;nan
14343;BME280;7255;53.596;9.960;2023-07-30T07:28:55;100619.13;;;19.78;nan
14343;BME280;7255;53.596;9.960;2023-07-30T07:31:21;100623.78;;;20.02;nan
14343;BME280;7255;53.596;9.960;2023-07-30T07:33:48;100614.25;;;20.23;nan
14343;BME280;7255;53.596;9.960;2023-07-30T07:36:14;100614.28;;;19.75;nan
14343;BME280;7255;53.596;9.960;2023-07-30T07:38:42;100624.00;;;19.81;nan
14343;BME280;7255;53.596;9.960;2023-07-30T07:41:13;100628.16;;;20.22;nan
14343;BME280;7255;53.596;9.960;2023-07-30T07:43:40;100626.72;;;20.72;nan
14343;BME280;7255;53.596;9.960;2023-07-30T07:46:06;100629.19;;;20.88;nan
14343;BME280;7255;53.596;9.960;2023-07-30T07:48:38;100618.59;;;20.67;nan
14343;BME280;7255;53.596;9.960;2023-07-30T07:51:05;100627.69;;;20.38;nan
14343;BME280;7255;53.596;9.960;2023-07-30T07:53:31;100624.94;;;19.95;nan
14343;BME280;7255;53.596;9.960;2023-07-30T07:55:59;100619.81;;;19.89;nan
14343;BME280;7255;53.596;9.960;2023-07-30T07:58:25;100615.97;;;19.66;nan
14343;BME280;7255;53.596;9.960;2023-07-30T08:00:54;100618.28;;;19.83;nan
14343;BME280;7255;53.596;9.960;2023-07-30T08:03:20;100617.84;;;19.94;nan
14343;BME280;7255;53.596;9.960;2023-07-30T08:05:47;100619.47;;;20.19;nan
14343;BME280;7255;53.596;9.960;2023-07-30T08:08:13;100616.28;;;20.55;nan
14343;BME280;7255;53.596;9.960;2023-07-30T08:10:40;100616.50;;;20.97;nan
14343;BME280;7255;53.596;9.960;2023-07-30T08:13:10;100617.91;;;20.94;nan
14343;BME280;7255;53.596;9.960;2023-07-30T08:15:36;100610.72;;;21.18;nan
14343;BME280;7255;53.596;9.960;2023-07-30T08:18:02;100613.28;;;21.47;nan
14343;BME280;7255;53.596;9.960;2023-07-30T08:20:29;100614.53;;;21.82;nan
14343;BME280;7255;53.596;9.960;2023-07-30T08:22:55;100608.44;;;21.71;nan
14343;BME280;7255;53.596;9.960;2023-07-30T08:25:21;100619.56;;;21.75;nan
14343;BME280;7255;53.596;9.960;2023-07-30T08:27:47;100611.03;;;21.63;nan
14343;BME280;7255;53.596;9.960;2023-07-30T08:30:15;100614.09;;;21.75;nan
14343;BME280;7255;53.596;9.960;2023-07-30T08:32:42;100609.66;;;21.79;nan
14343;BME280;7255;53.596;9.960;2023-07-30T08:35:09;100599.94;;;21.73;nan
14343;BME280;7255;53.596;9.960;2023-07-30T08:37:35;100609.03;;;21.68;nan
14343;BME280;7255;53.596;9.960;2023-07-30T08:40:02;100605.81;;;22.08;nan
14343;BME280;7255;53.596;9.960;2023-07-30T08:42:29;100612.50;;;22.02;nan
14343;BME280;7255;53.596;9.960;2023-07-30T08:44:55;100607.81;;;22.16;nan
14343;BME280;7255;53.596;9.960;2023-07-30T08:47:23;100614.09;;;22.03;nan
14343;BME280;7255;53.596;9.960;2023-07-30T08:49:50;100614.53;;;21.96;nan
14343;BME280;7255;53.596;9.960;2023-07-30T08:52:17;100614.53;;;21.96;nan
14343;BME280;7255;53.596;9.960;2023-07-30T08:54:47;100611.69;;;22.15;nan
14343;BME280;7255;53.596;9.960;2023-07-30T08:57:16;100609.84;;;21.83;nan
14343;BME280;7255;53.596;9.960;2023-07-30T08:59:56;100618.78;;;21.75;nan
14343;BME280;7255;53.596;9.960;2023-07-30T09:02:32;100623.87;;;21.48;nan
14343;BME280;7255;53.596;9.960;2023-07-30T09:05:00;100619.38;;;21.85;nan
14343;BME280;7255;53.596;9.960;2023-07-30T09:07:26;100617.56;;;21.81;nan
14343;BME280;7255;53.596;9.960;2023-07-30T09:09:53;100617.88;;;21.93;nan
14343;BME280;7255;53.596;9.960;2023-07-30T09:12:19;100623.03;;;22.22;nan
14343;BME280;7255;53.596;9.960;2023-07-30T09:14:50;100620.22;;;22.27;nan
14343;BME280;7255;53.596;9.960;2023-07-30T09:17:17;100606.81;;;21.84;nan
14343;BME280;7255;53.596;9.960;2023-07-30T09:19:45;100610.66;;;21.97;nan
14343;BME280;7255;53.596;9.960;2023-07-30T09:22:12;100617.56;;;22.08;nan
14343;BME280;7255;53.596;9.960;2023-07-30T09:24:41;100626.69;;;22.04;nan
14343;BME280;7255;53.596;9.960;2023-07-30T09:27:09;100623.63;;;21.91;nan
14343;BME280;7255;53.596;9.960;2023-07-30T09:29:35;100635.91;;;22.08;nan
14343;BME280;7255;53.596;9.960;2023-07-30T09:32:01;100621.38;;;22.21;nan
14343;BME280;7255;53.596;9.960;2023-07-30T09:34:28;100617.97;;;22.29;nan
14343;BME280;7255;53.596;9.960;2023-07-30T09:36:56;100634.34;;;22.57;nan
14343;BME280;7255;53.596;9.960;2023-07-30T09:39:25;100624.06;;;22.40;nan
14343;BME280;7255;53.596;9.960;2023-07-30T09:41:58;100634.75;;;22.64;nan
14343;BME280;7255;53.596;9.960;2023-07-30T09:44:25;100635.81;;;22.13;nan
14343;BME280;7255;53.596;9.960;2023-07-30T09:46:51;100641.75;;;22.01;nan
14343;BME280;7255;53.596;9.960;2023-07-30T09:49:18;100629.00;;;21.97;nan
14343;BME280;7255;53.596;9.960;2023-07-30T09:51:44;100631.94;;;21.86;nan
14343;BME280;7255;53.596;9.960;2023-07-30T09:54:13;100637.00;;;21.65;nan
14343;BME280;7255;53.596;9.960;2023-07-30T09:56:41;100637.75;;;21.52;nan
14343;BME280;7255;53.596;9.960;2023-07-30T09:59:09;100640.19;;;21.53;nan
14343;BME280;7255;53.596;9.960;2023-07-30T10:01:38;100647.50;;;21.58;nan
14343;BME280;7255;53.596;9.960;2023-07-30T10:04:08;100640.47;;;21.52;nan
14343;BME280;7255;53.596;9.960;2023-07-30T10:06:38;100639.50;;;21.29;nan
14343;BME280;7255;53.596;9.960;2023-07-30T10:09:07;100653.59;;;21.17;nan
14343;BME280;7255;53.596;9.960;2023-07-30T10:11:36;100656.09;;;21.32;nan
14343;BME280;7255;53.596;9.960;2023-07-30T10:14:03;100650.25;;;21.39;nan
14343;BME280;7255;53.596;9.960;2023-07-30T10:16:30;100655.22;;;21.70;nan
14343;BME280;7255;53.596;9.960;2023-07-30T10:18:57;100647.94;;;22.07;nan
14343;BME280;7255;53.596;9.960;2023-07-30T10:21:25;100660.94;;;22.43;nan
14343;BME280;7255;53.596;9.960;2023-07-30T10:23:58;100669.12;;;22.57;nan
14343;BME280;7255;53.596;9.960;2023-07-30T10:26:26;100674.31;;;22.30;nan
14343;BME280;7255;53.596;9.960;2023-07-30T10:29:09;100671.06;;;22.28;nan
14343;BME280;7255;53.596;9.960;2023-07-30T10:31:38;100671.28;;;22.46;nan
14343;BME280;7255;53.596;9.960;2023-07-30T10:34:06;100669.25;;;22.38;nan
14343;BME280;7255;53.596;9.960;2023-07-30T10:36:40;100669.41;;;22.00;nan
14343;BME280;7255;53.596;9.960;2023-07-30T10:39:11;100675.91;;;22.18;nan
14343;BME280;7255;53.596;9.960;2023-07-30T10:41:38;100664.75;;;21.86;nan
14343;BME280;7255;53.596;9.960;2023-07-30T10:44:05;100675.91;;;21.90;nan
14343;BME280;7255;53.596;9.960;2023-07-30T10:46:32;100676.09;;;21.94;nan
14343;BME280;7255;53.596;9.960;2023-07-30T10:48:58;100673.12;;;22.37;nan
14343;BME280;7255;53.596;9.960;2023-07-30T10:51:24;100676.91;;;22.63;nan
14343;BME280;7255;53.596;9.960;2023-07-30T10:53:50;100674.28;;;22.58;nan
14343;BME280;7255;53.596;9.960;2023-07-30T10:56:21;100679.16;;;22.61;nan
14343;BME280;7255;53.596;9.960;2023-07-30T10:58:49;100679.72;;;22.86;nan
14343;BME280;7255;53.596;9.960;2023-07-30T11:01:17;100676.44;;;22.84;nan
14343;BME280;7255;53.596;9.960;2023-07-30T11:03:48;100670.72;;;22.72;nan
14343;BME280;7255;53.596;9.960;2023-07-30T11:06:21;100685.56;;;23.07;nan
14343;BME280;7255;53.596;9.960;2023-07-30T11:08:48;100675.31;;;22.62;nan
14343;BME280;7255;53.596;9.960;2023-07-30T11:11:15;100662.56;;;22.30;nan
14343;BME280;7255;53.596;9.960;2023-07-30T11:13:43;100662.22;;;22.59;nan
14343;BME280;7255;53.596;9.960;2023-07-30T11:16:12;100673.88;;;22.51;nan
14343;BME280;7255;53.596;9.960;2023-07-30T11:18:41;100672.28;;;22.50;nan
14343;BME280;7255;53.596;9.960;2023-07-30T11:21:09;100666.06;;;22.58;nan
14343;BME280;7255;53.596;9.960;2023-07-30T11:23:37;100667.19;;;22.57;nan
14343;BME280;7255;53.596;9.960;2023-07-30T11:26:06;100665.56;;;22.56;nan
14343;BME280;7255;53.596;9.960;2023-07-30T11:28:34;100655.25;;;22.53;nan
14343;BME280;7255;53.596;9.960;2023-07-30T11:31:02;100665.56;;;22.56;nan
14343;BME280;7255;53.596;9.960;2023-07-30T11:33:29;100656.06;;;22.40;nan
14343;BME280;7255;53.596;9.960;2023-07-30T11:36:00;100654.22;;;22.63;nan
14343;BME280;7255;53.596;9.960;2023-07-30T11:38:27;100657.34;;;23.06;nan
14343;BME280;7255;53.596;9.960;2023-07-30T11:40:54;100652.88;;;23.11;nan
14343;BME280;7255;53.596;9.960;2023-07-30T11:43:22;100646.63;;;23.41;nan
14343;BME280;7255;53.596;9.960;2023-07-30T11:45:48;100647.19;;;23.52;nan
14343;BME280;7255;53.596;9.960;2023-07-30T11:48:15;100643.84;;;23.33;nan
14343;BME280;7255;53.596;9.960;2023-07-30T11:50:48;100643.31;;;23.53;nan
14343;BME280;7255;53.596;9.960;2023-07-30T11:53:17;100647.88;;;23.35;nan
14343;BME280;7255;53.596;9.960;2023-07-30T11:55:44;100645.72;;;23.55;nan
14343;BME280;7255;53.596;9.960;2023-07-30T11:58:12;100635.38;;;23.52;nan
14343;BME280;7255;53.596;9.960;2023-07-30T12:00:40;100637.44;;;23.37;nan
14343;BME280;7255;53.596;9.960;2023-07-30T12:03:10;100646.81;;;23.76;nan
14343;BME280;7255;53.596;9.960;2023-07-30T12:05:38;100637.28;;;24.05;nan
14343;BME280;7255;53.596;9.960;2023-07-30T12:08:13;100645.69;;;24.17;nan
14343;BME280;7255;53.596;9.960;2023-07-30T12:10:44;100646.72;;;24.39;nan
14343;BME280;7255;53.596;9.960;2023-07-30T12:13:12;100630.53;;;24.29;nan
14343;BME280;7255;53.596;9.960;2023-07-30T12:15:38;100628.59;;;24.20;nan
14343;BME280;7255;53.596;9.960;2023-07-30T12:18:05;100639.94;;;24.28;nan
14343;BME280;7255;53.596;9.960;2023-07-30T12:20:31;100629.44;;;24.38;nan
14343;BME280;7255;53.596;9.960;2023-07-30T12:22:57;100613.84;;;24.56;nan
14343;BME280;7255;53.596;9.960;2023-07-30T12:25:24;100616.91;;;24.55;nan
14343;BME280;7255;53.596;9.960;2023-07-30T12:27:51;100617.91;;;24.76;nan
14343;BME280;7255;53.596;9.960;2023-07-30T12:30:18;100621.75;;;24.75;nan
14343;BME280;7255;53.596;9.960;2023-07-30T12:32:44;100607.69;;;24.59;nan
14343;BME280;7255;53.596;9.960;2023-07-30T12:35:10;100614.62;;;24.74;nan
14343;BME280;7255;53.596;9.960;2023-07-30T12:37:37;100615.47;;;24.75;nan
14343;BME280;7255;53.596;9.960;2023-07-30T12:40:04;100614.19;;;24.64;nan
14343;BME280;7255;53.596;9.960;2023-07-30T12:42:30;100609.53;;;24.15;nan
14343;BME280;7255;53.596;9.960;2023-07-30T12:44:58;100594.28;;;23.92;nan
14343;BME280;7255;53.596;9.960;2023-07-30T12:47:25;100602.56;;;24.00;nan
14343;BME280;7255;53.596;9.960;2023-07-30T12:49:51;100608.22;;;24.04;nan
14343;BME280;7255;53.596;9.960;2023-07-30T12:52:17;100596.28;;;23.69;nan
14343;BME280;7255;53.596;9.960;2023-07-30T12:54:43;100596.13;;;23.65;nan
14343;BME280;7255;53.596;9.960;2023-07-30T12:57:10;100599.06;;;23.77;nan
14343;BME280;7255;53.596;9.960;2023-07-30T12:59:36;100601.06;;;23.54;nan
14343;BME280;7255;53.596;9.960;2023-07-30T13:02:04;100606.59;;;23.63;nan
14343;BME280;7255;53.596;9.960;2023-07-30T13:04:30;100603.16;;;23.26;nan
14343;BME280;7255;53.596;9.960;2023-07-30T13:06:57;100607.03;;;23.02;nan
14343;BME280;7255;53.596;9.960;2023-07-30T13:09:23;100596.41;;;22.64;nan
14343;BME280;7255;53.596;9.960;2023-07-30T13:11:49;100611.28;;;22.36;nan
14343;BME280;7255;53.596;9.960;2023-07-30T13:14:16;100655.09;;;21.28;nan
14343;BME280;7255;53.596;9.960;2023-07-30T13:16:42;100675.44;;;18.79;nan
14343;BME280;7255;53.596;9.960;2023-07-30T13:19:09;100692.88;;;17.67;nan
14343;BME280;7255;53.596;9.960;2023-07-30T13:21:37;100703.69;;;16.95;nan